sensor_id;sensor_type;location;lat;lon;timestamp;temperature;humidity
84432;DHT22;74658;51.736;7.038;2024-03-17T00:02:54;3.7;
84432;DHT22;74658;51.736;7.038;2024-03-17T00:07:55;3.6;
84432;DHT22;74658;51.736;7.038;2024-03-17T00:12:56;3.6;
84432;DHT22;74658;51.736;7.038;2024-03-17T00:17:56;3.5;
84432;DHT22;74658;51.736;7.038;2024-03-17T00:22:57;3.5;
84432;DHT22;74658;51.736;7.038;2024-03-17T00:27:57;3.5;
84432;DHT22;74658;51.736;7.038;2024-03-17T00:32:58;3.4;
84432;DHT22;74658;51.736;7.038;2024-03-17T00:37:59;3.4;
84432;DHT22;74658;51.736;7.038;2024-03-17T00:42:59;3.2;
84432;DHT22;74658;51.736;7.038;2024-03-17T00:47:59;3.1;
84432;DHT22;74658;51.736;7.038;2024-03-17T00:53:00;3.1;
84432;DHT22;74658;51.736;7.038;2024-03-17T00:58:01;3.1;
84432;DHT22;74658;51.736;7.038;2024-03-17T01:03:01;3;
84432;DHT22;74658;51.736;7.038;2024-03-17T01:08:02;2.9;
84432;DHT22;74658;51.736;7.038;2024-03-17T01:13:03;2.9;
84432;DHT22;74658;51.736;7.038;2024-03-17T01:18:04;2.9;
84432;DHT22;74658;51.736;7.038;2024-03-17T01:23:04;2.9;
84432;DHT22;74658;51.736;7.038;2024-03-17T01:28:04;2.8;
84432;DHT22;74658;51.736;7.038;2024-03-17T01:33:05;2.7;
84432;DHT22;74658;51.736;7.038;2024-03-17T01:38:05;2.7;
84432;DHT22;74658;51.736;7.038;2024-03-17T01:43:09;2.7;
84432;DHT22;74658;51.736;7.038;2024-03-17T01:48:13;2.6;
84432;DHT22;74658;51.736;7.038;2024-03-17T01:53:09;2.5;
84432;DHT22;74658;51.736;7.038;2024-03-17T01:58:08;2.5;
84432;DHT22;74658;51.736;7.038;2024-03-17T02:03:09;2.5;
84432;DHT22;74658;51.736;7.038;2024-03-17T02:08:10;2.5;
84432;DHT22;74658;51.736;7.038;2024-03-17T02:13:10;2.4;
84432;DHT22;74658;51.736;7.038;2024-03-17T02:18:10;2.4;
84432;DHT22;74658;51.736;7.038;2024-03-17T02:23:11;2.4;
84432;DHT22;74658;51.736;7.038;2024-03-17T02:28:14;2.4;
84432;DHT22;74658;51.736;7.038;2024-03-17T02:33:12;2.3;
84432;DHT22;74658;51.736;7.038;2024-03-17T02:38:15;2.3;
84432;DHT22;74658;51.736;7.038;2024-03-17T02:43:13;2.3;
84432;DHT22;74658;51.736;7.038;2024-03-17T02:48:14;2.3;
84432;DHT22;74658;51.736;7.038;2024-03-17T02:53:14;2.3;
84432;DHT22;74658;51.736;7.038;2024-03-17T02:58:15;2.2;
84432;DHT22;74658;51.736;7.038;2024-03-17T03:03:19;2.2;
84432;DHT22;74658;51.736;7.038;2024-03-17T03:08:17;2.3;
84432;DHT22;74658;51.736;7.038;2024-03-17T03:13:18;2.2;
84432;DHT22;74658;51.736;7.038;2024-03-17T03:18:18;2.2;
84432;DHT22;74658;51.736;7.038;2024-03-17T03:23:19;2.2;
84432;DHT22;74658;51.736;7.038;2024-03-17T03:28:19;2.2;
84432;DHT22;74658;51.736;7.038;2024-03-17T03:33:20;2.2;
84432;DHT22;74658;51.736;7.038;2024-03-17T03:38:21;2.1;
84432;DHT22;74658;51.736;7.038;2024-03-17T03:43:21;2.1;
84432;DHT22;74658;51.736;7.038;2024-03-17T03:48:22;2;
84432;DHT22;74658;51.736;7.038;2024-03-17T03:53:22;2;
84432;DHT22;74658;51.736;7.038;2024-03-17T03:58:23;2;
84432;DHT22;74658;51.736;7.038;2024-03-17T04:03:24;2;
84432;DHT22;74658;51.736;7.038;2024-03-17T04:08:24;2;
84432;DHT22;74658;51.736;7.038;2024-03-17T04:13:25;1.9;
84432;DHT22;74658;51.736;7.038;2024-03-17T04:18:26;2;
84432;DHT22;74658;51.736;7.038;2024-03-17T04:23:26;2;
84432;DHT22;74658;51.736;7.038;2024-03-17T04:28:27;2;
84432;DHT22;74658;51.736;7.038;2024-03-17T04:33:27;2;
84432;DHT22;74658;51.736;7.038;2024-03-17T04:38:28;2.1;
84432;DHT22;74658;51.736;7.038;2024-03-17T04:43:29;2.1;
84432;DHT22;74658;51.736;7.038;2024-03-17T04:48:30;2.1;
84432;DHT22;74658;51.736;7.038;2024-03-17T04:53:30;2.3;
84432;DHT22;74658;51.736;7.038;2024-03-17T04:58:31;2.3;
84432;DHT22;74658;51.736;7.038;2024-03-17T05:03:31;2.3;
84432;DHT22;74658;51.736;7.038;2024-03-17T05:08:32;2.3;
84432;DHT22;74658;51.736;7.038;2024-03-17T05:13:33;2.3;
84432;DHT22;74658;51.736;7.038;2024-03-17T05:18:33;2.3;
84432;DHT22;74658;51.736;7.038;2024-03-17T05:23:35;2.2;
84432;DHT22;74658;51.736;7.038;2024-03-17T05:28:34;2.2;
84432;DHT22;74658;51.736;7.038;2024-03-17T05:33:34;2.2;
84432;DHT22;74658;51.736;7.038;2024-03-17T05:38:35;2.3;
84432;DHT22;74658;51.736;7.038;2024-03-17T05:43:37;2.3;
84432;DHT22;74658;51.736;7.038;2024-03-17T05:48:37;2.3;
84432;DHT22;74658;51.736;7.038;2024-03-17T05:53:38;2.3;
84432;DHT22;74658;51.736;7.038;2024-03-17T05:58:38;2.4;
84432;DHT22;74658;51.736;7.038;2024-03-17T06:03:38;2.5;
84432;DHT22;74658;51.736;7.038;2024-03-17T06:08:38;2.6;
84432;DHT22;74658;51.736;7.038;2024-03-17T06:13:39;2.9;
84432;DHT22;74658;51.736;7.038;2024-03-17T06:18:40;3.1;
84432;DHT22;74658;51.736;7.038;2024-03-17T06:23:40;3.4;
84432;DHT22;74658;51.736;7.038;2024-03-17T06:28:41;3.7;
84432;DHT22;74658;51.736;7.038;2024-03-17T06:33:41;4;
84432;DHT22;74658;51.736;7.038;2024-03-17T06:38:42;4.2;
84432;DHT22;74658;51.736;7.038;2024-03-17T06:43:43;4.6;
84432;DHT22;74658;51.736;7.038;2024-03-17T06:48:43;4.7;
84432;DHT22;74658;51.736;7.038;2024-03-17T06:53:44;4.8;
84432;DHT22;74658;51.736;7.038;2024-03-17T06:58:44;5;
84432;DHT22;74658;51.736;7.038;2024-03-17T07:03:45;5.2;
84432;DHT22;74658;51.736;7.038;2024-03-17T07:08:45;5.4;
84432;DHT22;74658;51.736;7.038;2024-03-17T07:13:46;5.6;
84432;DHT22;74658;51.736;7.038;2024-03-17T07:18:47;5.9;
84432;DHT22;74658;51.736;7.038;2024-03-17T07:23:47;6.1;
84432;DHT22;74658;51.736;7.038;2024-03-17T07:28:48;6.1;
84432;DHT22;74658;51.736;7.038;2024-03-17T07:33:49;6.3;
84432;DHT22;74658;51.736;7.038;2024-03-17T07:38:49;6.5;
84432;DHT22;74658;51.736;7.038;2024-03-17T07:43:50;6.8;
84432;DHT22;74658;51.736;7.038;2024-03-17T07:48:50;7;
84432;DHT22;74658;51.736;7.038;2024-03-17T07:53:51;7.3;
84432;DHT22;74658;51.736;7.038;2024-03-17T07:58:52;7.5;
84432;DHT22;74658;51.736;7.038;2024-03-17T08:03:52;7.6;
84432;DHT22;74658;51.736;7.038;2024-03-17T08:08:53;7.9;
84432;DHT22;74658;51.736;7.038;2024-03-17T08:13:54;8.3;
84432;DHT22;74658;51.736;7.038;2024-03-17T08:18:54;8.7;
84432;DHT22;74658;51.736;7.038;2024-03-17T08:23:55;9;
84432;DHT22;74658;51.736;7.038;2024-03-17T08:28:55;9.3;
84432;DHT22;74658;51.736;7.038;2024-03-17T08:33:56;9.1;
84432;DHT22;74658;51.736;7.038;2024-03-17T08:38:57;9.1;
84432;DHT22;74658;51.736;7.038;2024-03-17T08:43:57;11.6;
84432;DHT22;74658;51.736;7.038;2024-03-17T08:49:08;11.4;
84432;DHT22;74658;51.736;7.038;2024-03-17T08:53:59;10.7;
84432;DHT22;74658;51.736;7.038;2024-03-17T08:58:59;11.6;
84432;DHT22;74658;51.736;7.038;2024-03-17T09:04:00;12.4;
84432;DHT22;74658;51.736;7.038;2024-03-17T09:09:00;13.1;
84432;DHT22;74658;51.736;7.038;2024-03-17T09:14:01;12.3;
84432;DHT22;74658;51.736;7.038;2024-03-17T09:19:01;12.9;
84432;DHT22;74658;51.736;7.038;2024-03-17T09:24:03;12.4;
84432;DHT22;74658;51.736;7.038;2024-03-17T09:29:03;12.6;
84432;DHT22;74658;51.736;7.038;2024-03-17T09:34:03;11.9;
84432;DHT22;74658;51.736;7.038;2024-03-17T09:39:04;11.7;
84432;DHT22;74658;51.736;7.038;2024-03-17T09:44:06;13.5;
84432;DHT22;74658;51.736;7.038;2024-03-17T09:49:09;13;
84432;DHT22;74658;51.736;7.038;2024-03-17T09:54:16;11.8;
84432;DHT22;74658;51.736;7.038;2024-03-17T09:59:06;12.2;
84432;DHT22;74658;51.736;7.038;2024-03-17T10:04:07;12.2;
84432;DHT22;74658;51.736;7.038;2024-03-17T10:09:15;12.5;
84432;DHT22;74658;51.736;7.038;2024-03-17T10:14:09;12.1;
84432;DHT22;74658;51.736;7.038;2024-03-17T10:19:10;12.5;
84432;DHT22;74658;51.736;7.038;2024-03-17T10:24:11;12.8;
84432;DHT22;74658;51.736;7.038;2024-03-17T10:29:20;12.6;
84432;DHT22;74658;51.736;7.038;2024-03-17T10:34:15;13;
84432;DHT22;74658;51.736;7.038;2024-03-17T10:39:23;12.1;
84432;DHT22;74658;51.736;7.038;2024-03-17T10:44:12;12.2;
84432;DHT22;74658;51.736;7.038;2024-03-17T10:49:13;12.3;
84432;DHT22;74658;51.736;7.038;2024-03-17T10:54:25;12.7;
84432;DHT22;74658;51.736;7.038;2024-03-17T10:59:15;12.6;
84432;DHT22;74658;51.736;7.038;2024-03-17T11:04:14;12.5;
84432;DHT22;74658;51.736;7.038;2024-03-17T11:09:16;12.8;
84432;DHT22;74658;51.736;7.038;2024-03-17T11:14:16;13;
84432;DHT22;74658;51.736;7.038;2024-03-17T11:19:17;12.9;
84432;DHT22;74658;51.736;7.038;2024-03-17T11:24:21;13;
84432;DHT22;74658;51.736;7.038;2024-03-17T11:29:27;12.9;
84432;DHT22;74658;51.736;7.038;2024-03-17T11:34:27;12.8;
84432;DHT22;74658;51.736;7.038;2024-03-17T11:39:19;12.8;
84432;DHT22;74658;51.736;7.038;2024-03-17T11:44:24;12.8;
84432;DHT22;74658;51.736;7.038;2024-03-17T11:49:21;12.5;
84432;DHT22;74658;51.736;7.038;2024-03-17T11:54:22;12.6;
84432;DHT22;74658;51.736;7.038;2024-03-17T11:59:22;12.8;
84432;DHT22;74658;51.736;7.038;2024-03-17T12:04:24;12.9;
84432;DHT22;74658;51.736;7.038;2024-03-17T12:09:24;12.8;
84432;DHT22;74658;51.736;7.038;2024-03-17T12:14:24;12.7;
84432;DHT22;74658;51.736;7.038;2024-03-17T12:19:25;13;
84432;DHT22;74658;51.736;7.038;2024-03-17T12:24:27;13.6;
84432;DHT22;74658;51.736;7.038;2024-03-17T12:29:27;13.8;
84432;DHT22;74658;51.736;7.038;2024-03-17T12:34:27;13.8;
84432;DHT22;74658;51.736;7.038;2024-03-17T12:39:28;14.4;
84432;DHT22;74658;51.736;7.038;2024-03-17T12:44:27;14.2;
84432;DHT22;74658;51.736;7.038;2024-03-17T12:49:29;14.1;
84432;DHT22;74658;51.736;7.038;2024-03-17T12:54:29;13.9;
84432;DHT22;74658;51.736;7.038;2024-03-17T12:59:37;14.5;
84432;DHT22;74658;51.736;7.038;2024-03-17T13:04:30;14.5;
84432;DHT22;74658;51.736;7.038;2024-03-17T13:09:31;14.1;
84432;DHT22;74658;51.736;7.038;2024-03-17T13:14:31;13.8;
84432;DHT22;74658;51.736;7.038;2024-03-17T13:19:32;14;
84432;DHT22;74658;51.736;7.038;2024-03-17T13:24:32;14.5;
84432;DHT22;74658;51.736;7.038;2024-03-17T13:29:33;14.5;
84432;DHT22;74658;51.736;7.038;2024-03-17T13:34:33;14.9;
84432;DHT22;74658;51.736;7.038;2024-03-17T13:39:34;14.4;
84432;DHT22;74658;51.736;7.038;2024-03-17T13:44:35;13.9;
84432;DHT22;74658;51.736;7.038;2024-03-17T13:49:36;14;
84432;DHT22;74658;51.736;7.038;2024-03-17T13:54:36;13.9;
84432;DHT22;74658;51.736;7.038;2024-03-17T13:59:36;14;
84432;DHT22;74658;51.736;7.038;2024-03-17T14:04:37;13.9;
84432;DHT22;74658;51.736;7.038;2024-03-17T14:09:38;13.6;
84432;DHT22;74658;51.736;7.038;2024-03-17T14:14:38;13.7;
84432;DHT22;74658;51.736;7.038;2024-03-17T14:19:39;13.7;
84432;DHT22;74658;51.736;7.038;2024-03-17T14:24:39;13.7;
84432;DHT22;74658;51.736;7.038;2024-03-17T14:29:40;13.5;
84432;DHT22;74658;51.736;7.038;2024-03-17T14:34:40;13.4;
84432;DHT22;74658;51.736;7.038;2024-03-17T14:39:41;13.5;
84432;DHT22;74658;51.736;7.038;2024-03-17T14:44:41;13.4;
84432;DHT22;74658;51.736;7.038;2024-03-17T14:49:43;13.5;
84432;DHT22;74658;51.736;7.038;2024-03-17T14:54:43;13.5;
84432;DHT22;74658;51.736;7.038;2024-03-17T14:59:43;13.6;
84432;DHT22;74658;51.736;7.038;2024-03-17T15:04:44;13.5;
84432;DHT22;74658;51.736;7.038;2024-03-17T15:09:45;13.6;
84432;DHT22;74658;51.736;7.038;2024-03-17T15:14:46;13.4;
84432;DHT22;74658;51.736;7.038;2024-03-17T15:19:46;13.4;
84432;DHT22;74658;51.736;7.038;2024-03-17T15:24:46;13.4;
84432;DHT22;74658;51.736;7.038;2024-03-17T15:29:47;13.4;
84432;DHT22;74658;51.736;7.038;2024-03-17T15:34:48;13.2;
84432;DHT22;74658;51.736;7.038;2024-03-17T15:39:48;13.2;
84432;DHT22;74658;51.736;7.038;2024-03-17T15:44:48;13.2;
84432;DHT22;74658;51.736;7.038;2024-03-17T15:49:49;13.2;
84432;DHT22;74658;51.736;7.038;2024-03-17T15:54:50;13.1;
84432;DHT22;74658;51.736;7.038;2024-03-17T15:59:50;13.2;
84432;DHT22;74658;51.736;7.038;2024-03-17T16:04:51;13.1;
84432;DHT22;74658;51.736;7.038;2024-03-17T16:09:52;13.3;
84432;DHT22;74658;51.736;7.038;2024-03-17T16:14:53;13.3;
84432;DHT22;74658;51.736;7.038;2024-03-17T16:19:53;13.5;
84432;DHT22;74658;51.736;7.038;2024-03-17T16:24:53;13.4;
84432;DHT22;74658;51.736;7.038;2024-03-17T16:29:54;13.3;
84432;DHT22;74658;51.736;7.038;2024-03-17T16:34:55;13.3;
84432;DHT22;74658;51.736;7.038;2024-03-17T16:39:55;13.2;
84432;DHT22;74658;51.736;7.038;2024-03-17T16:44:59;13.1;
84432;DHT22;74658;51.736;7.038;2024-03-17T16:49:57;13;
84432;DHT22;74658;51.736;7.038;2024-03-17T16:54:57;12.9;
84432;DHT22;74658;51.736;7.038;2024-03-17T16:59:58;12.8;
84432;DHT22;74658;51.736;7.038;2024-03-17T17:04:58;12.7;
84432;DHT22;74658;51.736;7.038;2024-03-17T17:09:59;12.6;
84432;DHT22;74658;51.736;7.038;2024-03-17T17:15:00;12.5;
84432;DHT22;74658;51.736;7.038;2024-03-17T17:20:00;12.4;
84432;DHT22;74658;51.736;7.038;2024-03-17T17:25:01;12.3;
84432;DHT22;74658;51.736;7.038;2024-03-17T17:30:02;12.3;
84432;DHT22;74658;51.736;7.038;2024-03-17T17:35:03;12.2;
84432;DHT22;74658;51.736;7.038;2024-03-17T17:40:03;12.1;
84432;DHT22;74658;51.736;7.038;2024-03-17T17:40:03;12.1;
84432;DHT22;74658;51.736;7.038;2024-03-17T17:45:04;12;
84432;DHT22;74658;51.736;7.038;2024-03-17T17:50:05;11.9;
84432;DHT22;74658;51.736;7.038;2024-03-17T17:55:05;11.9;
84432;DHT22;74658;51.736;7.038;2024-03-17T18:00:06;11.9;
84432;DHT22;74658;51.736;7.038;2024-03-17T18:05:06;11.8;
84432;DHT22;74658;51.736;7.038;2024-03-17T18:10:07;11.8;
84432;DHT22;74658;51.736;7.038;2024-03-17T18:15:07;11.7;
84432;DHT22;74658;51.736;7.038;2024-03-17T18:20:08;11.7;
84432;DHT22;74658;51.736;7.038;2024-03-17T18:25:08;11.6;
84432;DHT22;74658;51.736;7.038;2024-03-17T18:30:09;11.6;
84432;DHT22;74658;51.736;7.038;2024-03-17T18:35:09;11.6;
84432;DHT22;74658;51.736;7.038;2024-03-17T18:40:11;11.5;
84432;DHT22;74658;51.736;7.038;2024-03-17T18:45:11;11.5;
84432;DHT22;74658;51.736;7.038;2024-03-17T18:50:11;11.5;
84432;DHT22;74658;51.736;7.038;2024-03-17T18:55:13;11.4;
84432;DHT22;74658;51.736;7.038;2024-03-17T19:00:13;11.4;
84432;DHT22;74658;51.736;7.038;2024-03-17T19:05:14;11.3;
84432;DHT22;74658;51.736;7.038;2024-03-17T19:10:14;11.3;
84432;DHT22;74658;51.736;7.038;2024-03-17T19:15:14;11.3;
84432;DHT22;74658;51.736;7.038;2024-03-17T19:20:15;11.3;
84432;DHT22;74658;51.736;7.038;2024-03-17T19:25:17;11.3;
84432;DHT22;74658;51.736;7.038;2024-03-17T19:30:17;11.3;
84432;DHT22;74658;51.736;7.038;2024-03-17T19:35:17;11.2;
84432;DHT22;74658;51.736;7.038;2024-03-17T19:40:17;11.2;
84432;DHT22;74658;51.736;7.038;2024-03-17T19:45:18;11.1;
84432;DHT22;74658;51.736;7.038;2024-03-17T19:50:19;11.1;
84432;DHT22;74658;51.736;7.038;2024-03-17T19:55:19;11.1;
84432;DHT22;74658;51.736;7.038;2024-03-17T20:00:20;11.1;
84432;DHT22;74658;51.736;7.038;2024-03-17T20:05:21;11.1;
84432;DHT22;74658;51.736;7.038;2024-03-17T20:10:22;11.1;
84432;DHT22;74658;51.736;7.038;2024-03-17T20:15:22;11.1;
84432;DHT22;74658;51.736;7.038;2024-03-17T20:20:23;11.1;
84432;DHT22;74658;51.736;7.038;2024-03-17T20:25:23;11;
84432;DHT22;74658;51.736;7.038;2024-03-17T20:30:24;11;
84432;DHT22;74658;51.736;7.038;2024-03-17T20:35:25;11;
84432;DHT22;74658;51.736;7.038;2024-03-17T20:40:25;11;
84432;DHT22;74658;51.736;7.038;2024-03-17T20:45:26;11;
84432;DHT22;74658;51.736;7.038;2024-03-17T20:50:27;11;
84432;DHT22;74658;51.736;7.038;2024-03-17T20:55:27;11;
84432;DHT22;74658;51.736;7.038;2024-03-17T21:00:28;10.9;
84432;DHT22;74658;51.736;7.038;2024-03-17T21:05:28;10.9;
84432;DHT22;74658;51.736;7.038;2024-03-17T21:10:29;10.9;
84432;DHT22;74658;51.736;7.038;2024-03-17T21:15:30;10.8;
84432;DHT22;74658;51.736;7.038;2024-03-17T21:20:30;10.9;
84432;DHT22;74658;51.736;7.038;2024-03-17T21:25:31;10.8;
84432;DHT22;74658;51.736;7.038;2024-03-17T21:30:31;10.8;
84432;DHT22;74658;51.736;7.038;2024-03-17T21:35:32;10.7;
84432;DHT22;74658;51.736;7.038;2024-03-17T21:40:33;10.8;
84432;DHT22;74658;51.736;7.038;2024-03-17T21:45:33;10.8;
84432;DHT22;74658;51.736;7.038;2024-03-17T21:50:34;10.7;
84432;DHT22;74658;51.736;7.038;2024-03-17T21:55:34;10.7;
84432;DHT22;74658;51.736;7.038;2024-03-17T22:00:35;10.6;
84432;DHT22;74658;51.736;7.038;2024-03-17T22:05:36;10.7;
84432;DHT22;74658;51.736;7.038;2024-03-17T22:10:36;10.6;
84432;DHT22;74658;51.736;7.038;2024-03-17T22:15:37;10.6;
84432;DHT22;74658;51.736;7.038;2024-03-17T22:20:37;10.6;
84432;DHT22;74658;51.736;7.038;2024-03-17T22:25:38;10.6;
84432;DHT22;74658;51.736;7.038;2024-03-17T22:30:39;10.5;
84432;DHT22;74658;51.736;7.038;2024-03-17T22:35:39;10.4;
84432;DHT22;74658;51.736;7.038;2024-03-17T22:40:40;10.3;
84432;DHT22;74658;51.736;7.038;2024-03-17T22:45:41;10.3;
84432;DHT22;74658;51.736;7.038;2024-03-17T22:50:41;10.2;
84432;DHT22;74658;51.736;7.038;2024-03-17T22:55:46;10.3;
84432;DHT22;74658;51.736;7.038;2024-03-17T23:00:43;10.2;
84432;DHT22;74658;51.736;7.038;2024-03-17T23:05:43;10.1;
84432;DHT22;74658;51.736;7.038;2024-03-17T23:10:44;10.1;
84432;DHT22;74658;51.736;7.038;2024-03-17T23:15:44;10.1;
84432;DHT22;74658;51.736;7.038;2024-03-17T23:20:45;10.1;
84432;DHT22;74658;51.736;7.038;2024-03-17T23:25:46;10;
84432;DHT22;74658;51.736;7.038;2024-03-17T23:30:46;9.9;
84432;DHT22;74658;51.736;7.038;2024-03-17T23:35:47;9.9;
84432;DHT22;74658;51.736;7.038;2024-03-17T23:40:47;9.8;
84432;DHT22;74658;51.736;7.038;2024-03-17T23:45:48;9.8;
84432;DHT22;74658;51.736;7.038;2024-03-17T23:50:48;9.8;
84432;DHT22;74658;51.736;7.038;2024-03-17T23:55:49;9.8;
